sensor_id;sensor_type;location;lat;lon;timestamp;temperature;humidity
13598;DHT22;38563;54.258;12.574;2023-10-13T00:00:47;7.70;99.90
13598;DHT22;38563;54.258;12.574;2023-10-13T00:03:13;7.70;99.90
13598;DHT22;38563;54.258;12.574;2023-10-13T00:05:44;7.70;99.90
13598;DHT22;38563;54.258;12.574;2023-10-13T00:08:12;7.70;99.90
13598;DHT22;38563;54.258;12.574;2023-10-13T00:10:42;7.80;99.90
13598;DHT22;38563;54.258;12.574;2023-10-13T00:13:08;7.90;99.90
13598;DHT22;38563;54.258;12.574;2023-10-13T00:15:42;8.00;99.90
13598;DHT22;38563;54.258;12.574;2023-10-13T00:18:20;8.10;99.90
13598;DHT22;38563;54.258;12.574;2023-10-13T00:20:48;8.10;99.90
13598;DHT22;38563;54.258;12.574;2023-10-13T00:23:15;8.20;99.90
13598;DHT22;38563;54.258;12.574;2023-10-13T00:25:48;8.20;99.90
13598;DHT22;38563;54.258;12.574;2023-10-13T00:28:23;8.20;99.90
13598;DHT22;38563;54.258;12.574;2023-10-13T00:30:50;8.20;99.90
13598;DHT22;38563;54.258;12.574;2023-10-13T00:33:18;8.10;99.90
13598;DHT22;38563;54.258;12.574;2023-10-13T00:35:50;8.00;99.90
13598;DHT22;38563;54.258;12.574;2023-10-13T00:38:17;8.00;99.90
13598;DHT22;38563;54.258;12.574;2023-10-13T00:40:45;8.00;99.90
13598;DHT22;38563;54.258;12.574;2023-10-13T00:43:20;8.20;99.90
13598;DHT22;38563;54.258;12.574;2023-10-13T00:45:59;8.30;99.90
13598;DHT22;38563;54.258;12.574;2023-10-13T00:48:35;8.40;99.90
13598;DHT22;38563;54.258;12.574;2023-10-13T00:51:08;8.40;99.90
13598;DHT22;38563;54.258;12.574;2023-10-13T00:53:44;8.50;99.90
13598;DHT22;38563;54.258;12.574;2023-10-13T00:56:10;8.50;99.90
13598;DHT22;38563;54.258;12.574;2023-10-13T00:58:46;8.50;99.90
13598;DHT22;38563;54.258;12.574;2023-10-13T01:01:12;8.60;99.90
13598;DHT22;38563;54.258;12.574;2023-10-13T01:03:48;8.70;99.90
13598;DHT22;38563;54.258;12.574;2023-10-13T01:06:18;8.70;99.90
13598;DHT22;38563;54.258;12.574;2023-10-13T01:08:46;8.60;99.90
13598;DHT22;38563;54.258;12.574;2023-10-13T01:11:17;8.60;99.90
13598;DHT22;38563;54.258;12.574;2023-10-13T01:13:45;8.60;99.90
13598;DHT22;38563;54.258;12.574;2023-10-13T01:16:16;8.50;99.90
13598;DHT22;38563;54.258;12.574;2023-10-13T01:18:42;8.50;99.90
13598;DHT22;38563;54.258;12.574;2023-10-13T01:21:15;8.50;99.90
13598;DHT22;38563;54.258;12.574;2023-10-13T01:23:44;8.60;99.90
13598;DHT22;38563;54.258;12.574;2023-10-13T01:26:12;8.60;99.90
13598;DHT22;38563;54.258;12.574;2023-10-13T01:28:39;8.70;99.90
13598;DHT22;38563;54.258;12.574;2023-10-13T01:31:12;8.70;99.90
13598;DHT22;38563;54.258;12.574;2023-10-13T01:33:39;8.80;99.90
13598;DHT22;38563;54.258;12.574;2023-10-13T01:36:05;8.90;99.90
13598;DHT22;38563;54.258;12.574;2023-10-13T01:38:35;8.90;99.90
13598;DHT22;38563;54.258;12.574;2023-10-13T01:41:06;9.00;99.90
13598;DHT22;38563;54.258;12.574;2023-10-13T01:43:34;9.10;99.90
13598;DHT22;38563;54.258;12.574;2023-10-13T01:46:01;9.10;99.90
13598;DHT22;38563;54.258;12.574;2023-10-13T01:48:29;9.10;99.90
13598;DHT22;38563;54.258;12.574;2023-10-13T01:50:58;9.10;99.90
13598;DHT22;38563;54.258;12.574;2023-10-13T01:53:25;9.20;99.90
13598;DHT22;38563;54.258;12.574;2023-10-13T01:55:54;9.20;99.90
13598;DHT22;38563;54.258;12.574;2023-10-13T01:58:24;9.20;99.90
13598;DHT22;38563;54.258;12.574;2023-10-13T02:00:52;9.20;99.90
13598;DHT22;38563;54.258;12.574;2023-10-13T02:03:17;9.20;99.90
13598;DHT22;38563;54.258;12.574;2023-10-13T02:05:48;9.20;99.90
13598;DHT22;38563;54.258;12.574;2023-10-13T02:08:14;9.30;99.90
13598;DHT22;38563;54.258;12.574;2023-10-13T02:10:48;9.30;99.90
13598;DHT22;38563;54.258;12.574;2023-10-13T02:13:15;9.30;99.90
13598;DHT22;38563;54.258;12.574;2023-10-13T02:15:45;9.40;99.90
13598;DHT22;38563;54.258;12.574;2023-10-13T02:18:13;9.40;99.90
13598;DHT22;38563;54.258;12.574;2023-10-13T02:20:46;9.50;99.90
13598;DHT22;38563;54.258;12.574;2023-10-13T02:23:12;9.50;99.90
13598;DHT22;38563;54.258;12.574;2023-10-13T02:25:39;9.50;99.90
13598;DHT22;38563;54.258;12.574;2023-10-13T02:28:09;9.50;99.90
13598;DHT22;38563;54.258;12.574;2023-10-13T02:30:39;9.50;99.90
13598;DHT22;38563;54.258;12.574;2023-10-13T02:33:11;9.50;99.90
13598;DHT22;38563;54.258;12.574;2023-10-13T02:35:39;9.60;99.90
13598;DHT22;38563;54.258;12.574;2023-10-13T02:38:09;9.60;99.90
13598;DHT22;38563;54.258;12.574;2023-10-13T02:40:38;9.60;99.90
13598;DHT22;38563;54.258;12.574;2023-10-13T02:43:04;9.70;99.90
13598;DHT22;38563;54.258;12.574;2023-10-13T02:45:32;9.70;99.90
13598;DHT22;38563;54.258;12.574;2023-10-13T02:47:58;9.80;99.90
13598;DHT22;38563;54.258;12.574;2023-10-13T02:50:41;9.80;99.90
13598;DHT22;38563;54.258;12.574;2023-10-13T02:53:10;9.80;99.90
13598;DHT22;38563;54.258;12.574;2023-10-13T02:55:49;9.90;99.90
13598;DHT22;38563;54.258;12.574;2023-10-13T02:58:15;9.90;99.90
13598;DHT22;38563;54.258;12.574;2023-10-13T03:00:43;9.90;99.90
13598;DHT22;38563;54.258;12.574;2023-10-13T03:03:09;9.90;99.90
13598;DHT22;38563;54.258;12.574;2023-10-13T03:05:41;9.90;99.90
13598;DHT22;38563;54.258;12.574;2023-10-13T03:08:08;10.10;99.90
13598;DHT22;38563;54.258;12.574;2023-10-13T03:10:37;10.10;99.90
13598;DHT22;38563;54.258;12.574;2023-10-13T03:13:10;10.20;99.90
13598;DHT22;38563;54.258;12.574;2023-10-13T03:15:37;10.20;99.90
13598;DHT22;38563;54.258;12.574;2023-10-13T03:18:03;10.20;99.90
13598;DHT22;38563;54.258;12.574;2023-10-13T03:20:30;10.20;99.90
13598;DHT22;38563;54.258;12.574;2023-10-13T03:22:58;10.30;99.90
13598;DHT22;38563;54.258;12.574;2023-10-13T03:25:25;10.30;99.90
13598;DHT22;38563;54.258;12.574;2023-10-13T03:27:55;10.30;99.90
13598;DHT22;38563;54.258;12.574;2023-10-13T03:30:30;10.30;99.90
13598;DHT22;38563;54.258;12.574;2023-10-13T03:33:05;10.40;99.90
13598;DHT22;38563;54.258;12.574;2023-10-13T03:35:36;10.40;99.90
13598;DHT22;38563;54.258;12.574;2023-10-13T03:38:09;10.40;99.90
13598;DHT22;38563;54.258;12.574;2023-10-13T03:40:43;10.50;99.90
13598;DHT22;38563;54.258;12.574;2023-10-13T03:43:14;10.50;99.90
13598;DHT22;38563;54.258;12.574;2023-10-13T03:45:43;10.50;99.90
13598;DHT22;38563;54.258;12.574;2023-10-13T03:48:14;10.60;99.90
13598;DHT22;38563;54.258;12.574;2023-10-13T03:50:54;10.60;99.90
13598;DHT22;38563;54.258;12.574;2023-10-13T03:53:29;10.60;99.90
13598;DHT22;38563;54.258;12.574;2023-10-13T03:55:59;10.60;99.90
13598;DHT22;38563;54.258;12.574;2023-10-13T03:58:38;10.70;99.90
13598;DHT22;38563;54.258;12.574;2023-10-13T04:01:08;10.70;99.90
13598;DHT22;38563;54.258;12.574;2023-10-13T04:03:37;10.70;99.90
13598;DHT22;38563;54.258;12.574;2023-10-13T04:06:22;10.80;99.90
13598;DHT22;38563;54.258;12.574;2023-10-13T04:09:13;10.80;99.90
13598;DHT22;38563;54.258;12.574;2023-10-13T04:12:01;10.90;99.90
13598;DHT22;38563;54.258;12.574;2023-10-13T04:15:00;10.90;99.90
13598;DHT22;38563;54.258;12.574;2023-10-13T04:17:44;10.90;99.90
13598;DHT22;38563;54.258;12.574;2023-10-13T04:20:11;10.90;99.90
13598;DHT22;38563;54.258;12.574;2023-10-13T04:22:58;11.00;99.90
13598;DHT22;38563;54.258;12.574;2023-10-13T04:25:45;11.00;99.90
13598;DHT22;38563;54.258;12.574;2023-10-13T04:28:29;11.00;99.90
13598;DHT22;38563;54.258;12.574;2023-10-13T04:31:16;11.00;99.90
13598;DHT22;38563;54.258;12.574;2023-10-13T04:34:09;11.00;99.90
13598;DHT22;38563;54.258;12.574;2023-10-13T04:36:44;11.10;99.90
13598;DHT22;38563;54.258;12.574;2023-10-13T04:39:11;11.10;99.90
13598;DHT22;38563;54.258;12.574;2023-10-13T04:41:43;11.10;99.90
13598;DHT22;38563;54.258;12.574;2023-10-13T04:44:24;11.10;99.90
13598;DHT22;38563;54.258;12.574;2023-10-13T04:47:04;11.10;99.90
13598;DHT22;38563;54.258;12.574;2023-10-13T04:49:38;11.10;99.90
13598;DHT22;38563;54.258;12.574;2023-10-13T04:52:17;11.10;99.90
13598;DHT22;38563;54.258;12.574;2023-10-13T04:55:05;11.10;99.90
13598;DHT22;38563;54.258;12.574;2023-10-13T04:58:00;11.10;99.90
13598;DHT22;38563;54.258;12.574;2023-10-13T05:00:36;11.10;99.90
13598;DHT22;38563;54.258;12.574;2023-10-13T05:03:41;11.10;99.90
13598;DHT22;38563;54.258;12.574;2023-10-13T05:06:19;11.10;99.90
13598;DHT22;38563;54.258;12.574;2023-10-13T05:09:04;11.10;99.90
13598;DHT22;38563;54.258;12.574;2023-10-13T05:11:48;11.10;99.90
13598;DHT22;38563;54.258;12.574;2023-10-13T05:14:33;11.10;99.90
13598;DHT22;38563;54.258;12.574;2023-10-13T05:17:17;11.10;99.90
13598;DHT22;38563;54.258;12.574;2023-10-13T05:20:02;11.10;99.90
13598;DHT22;38563;54.258;12.574;2023-10-13T05:22:46;11.10;99.90
13598;DHT22;38563;54.258;12.574;2023-10-13T05:25:34;11.20;99.90
13598;DHT22;38563;54.258;12.574;2023-10-13T05:28:18;11.20;99.90
13598;DHT22;38563;54.258;12.574;2023-10-13T05:31:04;11.10;99.90
13598;DHT22;38563;54.258;12.574;2023-10-13T05:33:48;11.10;99.90
13598;DHT22;38563;54.258;12.574;2023-10-13T05:36:33;11.20;99.90
13598;DHT22;38563;54.258;12.574;2023-10-13T05:39:17;11.20;99.90
13598;DHT22;38563;54.258;12.574;2023-10-13T05:42:01;11.20;99.90
13598;DHT22;38563;54.258;12.574;2023-10-13T05:44:45;11.20;99.90
13598;DHT22;38563;54.258;12.574;2023-10-13T05:47:23;11.30;99.90
13598;DHT22;38563;54.258;12.574;2023-10-13T05:50:05;11.30;99.90
13598;DHT22;38563;54.258;12.574;2023-10-13T05:52:38;11.40;99.90
13598;DHT22;38563;54.258;12.574;2023-10-13T05:55:24;11.40;99.90
13598;DHT22;38563;54.258;12.574;2023-10-13T05:58:08;11.40;99.90
13598;DHT22;38563;54.258;12.574;2023-10-13T06:00:53;11.50;99.90
13598;DHT22;38563;54.258;12.574;2023-10-13T06:03:39;11.60;99.90
13598;DHT22;38563;54.258;12.574;2023-10-13T06:06:23;11.60;99.90
13598;DHT22;38563;54.258;12.574;2023-10-13T06:09:07;11.70;99.90
13598;DHT22;38563;54.258;12.574;2023-10-13T06:11:51;11.70;99.90
13598;DHT22;38563;54.258;12.574;2023-10-13T06:14:36;11.80;99.90
13598;DHT22;38563;54.258;12.574;2023-10-13T06:17:20;11.80;99.90
13598;DHT22;38563;54.258;12.574;2023-10-13T06:20:07;11.90;99.90
13598;DHT22;38563;54.258;12.574;2023-10-13T06:22:52;11.90;99.90
13598;DHT22;38563;54.258;12.574;2023-10-13T06:25:37;12.00;99.90
13598;DHT22;38563;54.258;12.574;2023-10-13T06:28:21;12.10;99.90
13598;DHT22;38563;54.258;12.574;2023-10-13T06:31:05;12.20;99.90
13598;DHT22;38563;54.258;12.574;2023-10-13T06:33:32;12.20;99.90
13598;DHT22;38563;54.258;12.574;2023-10-13T06:36:01;12.30;99.90
13598;DHT22;38563;54.258;12.574;2023-10-13T06:38:29;12.30;99.90
13598;DHT22;38563;54.258;12.574;2023-10-13T06:41:01;12.40;99.90
13598;DHT22;38563;54.258;12.574;2023-10-13T06:43:31;12.50;99.90
13598;DHT22;38563;54.258;12.574;2023-10-13T06:46:00;12.50;99.90
13598;DHT22;38563;54.258;12.574;2023-10-13T06:48:27;12.60;99.90
13598;DHT22;38563;54.258;12.574;2023-10-13T06:50:58;12.70;99.90
13598;DHT22;38563;54.258;12.574;2023-10-13T06:53:31;12.70;99.90
13598;DHT22;38563;54.258;12.574;2023-10-13T06:56:05;12.80;99.90
13598;DHT22;38563;54.258;12.574;2023-10-13T06:58:32;12.80;99.90
13598;DHT22;38563;54.258;12.574;2023-10-13T07:00:59;12.80;99.90
13598;DHT22;38563;54.258;12.574;2023-10-13T07:03:27;12.80;99.90
13598;DHT22;38563;54.258;12.574;2023-10-13T07:05:53;12.80;99.90
13598;DHT22;38563;54.258;12.574;2023-10-13T07:08:24;12.80;99.90
13598;DHT22;38563;54.258;12.574;2023-10-13T07:10:53;12.90;99.90
13598;DHT22;38563;54.258;12.574;2023-10-13T07:13:30;12.90;99.90
13598;DHT22;38563;54.258;12.574;2023-10-13T07:16:02;12.90;99.90
13598;DHT22;38563;54.258;12.574;2023-10-13T07:18:31;13.00;99.90
13598;DHT22;38563;54.258;12.574;2023-10-13T07:21:03;13.00;99.90
13598;DHT22;38563;54.258;12.574;2023-10-13T07:23:36;13.00;99.90
13598;DHT22;38563;54.258;12.574;2023-10-13T07:26:05;13.10;99.90
13598;DHT22;38563;54.258;12.574;2023-10-13T07:28:34;13.10;99.90
13598;DHT22;38563;54.258;12.574;2023-10-13T07:31:11;13.20;99.90
13598;DHT22;38563;54.258;12.574;2023-10-13T07:33:41;13.20;99.90
13598;DHT22;38563;54.258;12.574;2023-10-13T07:36:09;13.20;99.90
13598;DHT22;38563;54.258;12.574;2023-10-13T07:38:43;13.30;99.90
13598;DHT22;38563;54.258;12.574;2023-10-13T07:41:15;13.30;99.90
13598;DHT22;38563;54.258;12.574;2023-10-13T07:43:42;13.40;99.90
13598;DHT22;38563;54.258;12.574;2023-10-13T07:46:10;13.40;99.90
13598;DHT22;38563;54.258;12.574;2023-10-13T07:48:38;13.40;99.90
13598;DHT22;38563;54.258;12.574;2023-10-13T07:51:07;13.50;99.90
13598;DHT22;38563;54.258;12.574;2023-10-13T07:53:37;13.50;99.90
13598;DHT22;38563;54.258;12.574;2023-10-13T07:56:06;13.60;99.90
13598;DHT22;38563;54.258;12.574;2023-10-13T07:58:35;13.60;99.90
13598;DHT22;38563;54.258;12.574;2023-10-13T08:01:13;13.70;99.90
13598;DHT22;38563;54.258;12.574;2023-10-13T08:03:44;13.70;99.90
13598;DHT22;38563;54.258;12.574;2023-10-13T08:06:11;13.80;99.90
13598;DHT22;38563;54.258;12.574;2023-10-13T08:08:51;13.80;99.90
13598;DHT22;38563;54.258;12.574;2023-10-13T08:11:21;13.90;99.90
13598;DHT22;38563;54.258;12.574;2023-10-13T08:14:01;13.90;99.90
13598;DHT22;38563;54.258;12.574;2023-10-13T08:16:37;14.00;99.90
13598;DHT22;38563;54.258;12.574;2023-10-13T08:19:19;14.10;99.90
13598;DHT22;38563;54.258;12.574;2023-10-13T08:21:47;14.10;99.90
13598;DHT22;38563;54.258;12.574;2023-10-13T08:24:16;14.20;99.90
13598;DHT22;38563;54.258;12.574;2023-10-13T08:26:50;14.30;99.90
13598;DHT22;38563;54.258;12.574;2023-10-13T08:29:38;14.30;99.90
13598;DHT22;38563;54.258;12.574;2023-10-13T08:32:34;14.40;99.90
13598;DHT22;38563;54.258;12.574;2023-10-13T08:35:10;14.50;99.90
13598;DHT22;38563;54.258;12.574;2023-10-13T08:37:48;14.60;99.90
13598;DHT22;38563;54.258;12.574;2023-10-13T08:40:27;14.60;99.90
13598;DHT22;38563;54.258;12.574;2023-10-13T08:43:12;14.70;99.90
13598;DHT22;38563;54.258;12.574;2023-10-13T08:45:41;14.80;99.90
13598;DHT22;38563;54.258;12.574;2023-10-13T08:48:20;14.70;99.90
13598;DHT22;38563;54.258;12.574;2023-10-13T08:50:52;14.80;99.90
13598;DHT22;38563;54.258;12.574;2023-10-13T08:53:22;14.80;99.90
13598;DHT22;38563;54.258;12.574;2023-10-13T08:55:59;14.80;99.90
13598;DHT22;38563;54.258;12.574;2023-10-13T08:58:32;14.80;99.90
13598;DHT22;38563;54.258;12.574;2023-10-13T09:01:14;14.80;99.90
13598;DHT22;38563;54.258;12.574;2023-10-13T09:04:01;14.90;99.90
13598;DHT22;38563;54.258;12.574;2023-10-13T09:06:42;14.90;99.90
13598;DHT22;38563;54.258;12.574;2023-10-13T09:09:12;14.90;99.90
13598;DHT22;38563;54.258;12.574;2023-10-13T09:11:53;15.00;99.90
13598;DHT22;38563;54.258;12.574;2023-10-13T09:14:33;15.10;99.90
13598;DHT22;38563;54.258;12.574;2023-10-13T09:17:04;15.10;99.90
13598;DHT22;38563;54.258;12.574;2023-10-13T09:19:51;15.10;99.90
13598;DHT22;38563;54.258;12.574;2023-10-13T09:22:25;15.10;99.90
13598;DHT22;38563;54.258;12.574;2023-10-13T09:24:55;15.20;99.90
13598;DHT22;38563;54.258;12.574;2023-10-13T09:27:24;15.20;99.90
13598;DHT22;38563;54.258;12.574;2023-10-13T09:29:59;15.20;99.90
13598;DHT22;38563;54.258;12.574;2023-10-13T09:32:36;15.30;99.90
13598;DHT22;38563;54.258;12.574;2023-10-13T09:35:17;15.40;99.90
13598;DHT22;38563;54.258;12.574;2023-10-13T09:37:45;15.50;99.90
13598;DHT22;38563;54.258;12.574;2023-10-13T09:40:14;15.50;99.90
13598;DHT22;38563;54.258;12.574;2023-10-13T09:42:52;15.60;99.90
13598;DHT22;38563;54.258;12.574;2023-10-13T09:45:21;15.60;99.90
13598;DHT22;38563;54.258;12.574;2023-10-13T09:47:55;15.70;99.90
13598;DHT22;38563;54.258;12.574;2023-10-13T09:50:26;15.80;99.90
13598;DHT22;38563;54.258;12.574;2023-10-13T09:53:00;15.90;99.90
13598;DHT22;38563;54.258;12.574;2023-10-13T09:55:28;16.00;99.90
13598;DHT22;38563;54.258;12.574;2023-10-13T09:58:02;15.90;99.90
13598;DHT22;38563;54.258;12.574;2023-10-13T10:00:39;15.90;99.90
13598;DHT22;38563;54.258;12.574;2023-10-13T10:03:23;15.90;99.90
13598;DHT22;38563;54.258;12.574;2023-10-13T10:05:57;15.80;99.90
13598;DHT22;38563;54.258;12.574;2023-10-13T10:08:30;15.90;99.90
13598;DHT22;38563;54.258;12.574;2023-10-13T10:11:33;15.90;99.90
13598;DHT22;38563;54.258;12.574;2023-10-13T10:14:16;15.90;99.90
13598;DHT22;38563;54.258;12.574;2023-10-13T10:16:53;15.90;99.90
13598;DHT22;38563;54.258;12.574;2023-10-13T10:19:26;15.80;99.90
13598;DHT22;38563;54.258;12.574;2023-10-13T10:22:01;15.90;99.90
13598;DHT22;38563;54.258;12.574;2023-10-13T10:24:35;15.90;99.90
13598;DHT22;38563;54.258;12.574;2023-10-13T10:27:03;15.80;99.90
13598;DHT22;38563;54.258;12.574;2023-10-13T10:29:30;15.90;99.90
13598;DHT22;38563;54.258;12.574;2023-10-13T10:31:58;15.90;99.90
13598;DHT22;38563;54.258;12.574;2023-10-13T10:34:30;15.90;99.90
13598;DHT22;38563;54.258;12.574;2023-10-13T10:36:59;15.90;99.90
13598;DHT22;38563;54.258;12.574;2023-10-13T10:39:33;15.90;99.90
13598;DHT22;38563;54.258;12.574;2023-10-13T10:42:09;16.00;99.90
13598;DHT22;38563;54.258;12.574;2023-10-13T10:44:41;16.00;99.90
13598;DHT22;38563;54.258;12.574;2023-10-13T10:47:10;16.00;99.90
13598;DHT22;38563;54.258;12.574;2023-10-13T10:49:39;16.10;99.90
13598;DHT22;38563;54.258;12.574;2023-10-13T10:52:09;16.10;99.90
13598;DHT22;38563;54.258;12.574;2023-10-13T10:54:44;16.10;99.90
13598;DHT22;38563;54.258;12.574;2023-10-13T10:57:17;16.10;99.90
13598;DHT22;38563;54.258;12.574;2023-10-13T10:59:44;16.10;99.90
13598;DHT22;38563;54.258;12.574;2023-10-13T11:02:11;16.10;99.90
13598;DHT22;38563;54.258;12.574;2023-10-13T11:04:42;16.10;99.90
13598;DHT22;38563;54.258;12.574;2023-10-13T11:07:21;16.10;99.90
13598;DHT22;38563;54.258;12.574;2023-10-13T11:09:49;16.10;99.90
13598;DHT22;38563;54.258;12.574;2023-10-13T11:12:19;16.00;99.90
13598;DHT22;38563;54.258;12.574;2023-10-13T11:15:02;16.00;99.90
13598;DHT22;38563;54.258;12.574;2023-10-13T11:17:30;16.10;99.90
13598;DHT22;38563;54.258;12.574;2023-10-13T11:20:13;16.20;99.90
13598;DHT22;38563;54.258;12.574;2023-10-13T11:22:45;16.20;99.90
13598;DHT22;38563;54.258;12.574;2023-10-13T11:25:21;16.20;99.90
13598;DHT22;38563;54.258;12.574;2023-10-13T11:27:49;16.30;99.90
13598;DHT22;38563;54.258;12.574;2023-10-13T11:30:24;16.30;99.90
13598;DHT22;38563;54.258;12.574;2023-10-13T11:33:07;16.40;99.90
13598;DHT22;38563;54.258;12.574;2023-10-13T11:35:37;16.40;99.90
13598;DHT22;38563;54.258;12.574;2023-10-13T11:38:25;16.50;99.90
13598;DHT22;38563;54.258;12.574;2023-10-13T11:40:57;16.60;99.90
13598;DHT22;38563;54.258;12.574;2023-10-13T11:43:34;16.60;99.90
13598;DHT22;38563;54.258;12.574;2023-10-13T11:46:13;16.70;99.90
13598;DHT22;38563;54.258;12.574;2023-10-13T11:48:41;16.70;99.90
13598;DHT22;38563;54.258;12.574;2023-10-13T11:51:11;16.70;99.90
13598;DHT22;38563;54.258;12.574;2023-10-13T11:53:43;16.70;99.90
13598;DHT22;38563;54.258;12.574;2023-10-13T11:56:10;16.60;99.90
13598;DHT22;38563;54.258;12.574;2023-10-13T11:58:39;16.60;99.90
13598;DHT22;38563;54.258;12.574;2023-10-13T12:01:06;16.60;99.90
13598;DHT22;38563;54.258;12.574;2023-10-13T12:03:46;16.60;99.90
13598;DHT22;38563;54.258;12.574;2023-10-13T12:06:34;16.60;99.90
13598;DHT22;38563;54.258;12.574;2023-10-13T12:09:12;16.60;99.90
13598;DHT22;38563;54.258;12.574;2023-10-13T12:12:00;16.60;99.90
13598;DHT22;38563;54.258;12.574;2023-10-13T12:14:28;16.60;99.90
13598;DHT22;38563;54.258;12.574;2023-10-13T12:16:55;16.60;99.90
13598;DHT22;38563;54.258;12.574;2023-10-13T12:19:28;16.70;99.90
13598;DHT22;38563;54.258;12.574;2023-10-13T12:21:58;16.70;99.90
13598;DHT22;38563;54.258;12.574;2023-10-13T12:24:30;16.70;99.90
13598;DHT22;38563;54.258;12.574;2023-10-13T12:27:06;16.70;99.90
13598;DHT22;38563;54.258;12.574;2023-10-13T12:29:44;16.80;99.90
13598;DHT22;38563;54.258;12.574;2023-10-13T12:32:12;16.80;99.90
13598;DHT22;38563;54.258;12.574;2023-10-13T12:34:40;16.90;99.90
13598;DHT22;38563;54.258;12.574;2023-10-13T12:37:28;16.90;99.90
13598;DHT22;38563;54.258;12.574;2023-10-13T12:40:16;17.00;99.90
13598;DHT22;38563;54.258;12.574;2023-10-13T12:43:00;17.10;99.90
13598;DHT22;38563;54.258;12.574;2023-10-13T12:45:46;17.20;99.90
13598;DHT22;38563;54.258;12.574;2023-10-13T12:48:32;17.30;99.90
13598;DHT22;38563;54.258;12.574;2023-10-13T12:51:16;17.30;99.90
13598;DHT22;38563;54.258;12.574;2023-10-13T12:53:48;17.40;99.90
13598;DHT22;38563;54.258;12.574;2023-10-13T12:56:15;17.40;99.90
13598;DHT22;38563;54.258;12.574;2023-10-13T12:58:42;17.30;99.90
13598;DHT22;38563;54.258;12.574;2023-10-13T13:01:17;17.40;99.90
13598;DHT22;38563;54.258;12.574;2023-10-13T13:03:46;17.30;99.90
13598;DHT22;38563;54.258;12.574;2023-10-13T13:06:16;17.40;99.90
13598;DHT22;38563;54.258;12.574;2023-10-13T13:08:43;17.40;99.90
13598;DHT22;38563;54.258;12.574;2023-10-13T13:11:12;17.50;99.90
13598;DHT22;38563;54.258;12.574;2023-10-13T13:13:38;17.60;99.90
13598;DHT22;38563;54.258;12.574;2023-10-13T13:16:05;17.70;99.90
13598;DHT22;38563;54.258;12.574;2023-10-13T13:18:33;17.70;99.90
13598;DHT22;38563;54.258;12.574;2023-10-13T13:21:00;17.80;99.90
13598;DHT22;38563;54.258;12.574;2023-10-13T13:23:27;17.90;99.90
13598;DHT22;38563;54.258;12.574;2023-10-13T13:25:56;18.00;99.90
13598;DHT22;38563;54.258;12.574;2023-10-13T13:28:24;18.00;99.90
13598;DHT22;38563;54.258;12.574;2023-10-13T13:30:54;18.10;99.90
13598;DHT22;38563;54.258;12.574;2023-10-13T13:33:21;18.20;99.90
13598;DHT22;38563;54.258;12.574;2023-10-13T13:35:53;18.20;99.90
13598;DHT22;38563;54.258;12.574;2023-10-13T13:38:20;18.20;99.90
13598;DHT22;38563;54.258;12.574;2023-10-13T13:46:17;18.40;99.90
13598;DHT22;38563;54.258;12.574;2023-10-13T13:48:45;18.40;99.90
13598;DHT22;38563;54.258;12.574;2023-10-13T13:51:13;18.50;99.90
13598;DHT22;38563;54.258;12.574;2023-10-13T13:53:41;18.50;99.90
13598;DHT22;38563;54.258;12.574;2023-10-13T13:56:10;18.50;99.90
13598;DHT22;38563;54.258;12.574;2023-10-13T13:58:41;18.60;99.90
13598;DHT22;38563;54.258;12.574;2023-10-13T14:01:08;18.70;99.90
13598;DHT22;38563;54.258;12.574;2023-10-13T14:03:41;18.70;99.90
13598;DHT22;38563;54.258;12.574;2023-10-13T14:06:17;18.80;99.90
13598;DHT22;38563;54.258;12.574;2023-10-13T14:08:47;18.80;99.90
13598;DHT22;38563;54.258;12.574;2023-10-13T14:11:17;18.80;99.90
13598;DHT22;38563;54.258;12.574;2023-10-13T14:14:04;18.70;99.90
13598;DHT22;38563;54.258;12.574;2023-10-13T14:16:37;18.70;99.90
13598;DHT22;38563;54.258;12.574;2023-10-13T14:19:11;18.80;99.90
13598;DHT22;38563;54.258;12.574;2023-10-13T14:21:38;19.00;99.90
13598;DHT22;38563;54.258;12.574;2023-10-13T14:24:05;19.10;99.90
13598;DHT22;38563;54.258;12.574;2023-10-13T14:26:40;19.30;99.90
13598;DHT22;38563;54.258;12.574;2023-10-13T14:29:09;19.30;99.90
13598;DHT22;38563;54.258;12.574;2023-10-13T14:31:40;19.30;99.90
13598;DHT22;38563;54.258;12.574;2023-10-13T14:34:07;19.30;99.90
13598;DHT22;38563;54.258;12.574;2023-10-13T14:36:35;19.30;99.90
13598;DHT22;38563;54.258;12.574;2023-10-13T14:39:02;19.30;99.90
13598;DHT22;38563;54.258;12.574;2023-10-13T14:41:29;19.30;99.90
13598;DHT22;38563;54.258;12.574;2023-10-13T14:43:56;19.30;99.90
13598;DHT22;38563;54.258;12.574;2023-10-13T14:46:31;19.30;99.90
13598;DHT22;38563;54.258;12.574;2023-10-13T14:49:01;19.30;99.90
13598;DHT22;38563;54.258;12.574;2023-10-13T14:51:28;19.30;99.90
13598;DHT22;38563;54.258;12.574;2023-10-13T14:53:56;19.30;99.90
13598;DHT22;38563;54.258;12.574;2023-10-13T14:56:25;19.30;99.90
13598;DHT22;38563;54.258;12.574;2023-10-13T14:58:54;19.30;99.90
13598;DHT22;38563;54.258;12.574;2023-10-13T15:01:22;19.30;99.90
13598;DHT22;38563;54.258;12.574;2023-10-13T15:03:53;19.30;99.90
13598;DHT22;38563;54.258;12.574;2023-10-13T15:06:22;19.30;99.90
13598;DHT22;38563;54.258;12.574;2023-10-13T15:08:52;19.30;99.90
13598;DHT22;38563;54.258;12.574;2023-10-13T15:11:21;19.30;99.90
13598;DHT22;38563;54.258;12.574;2023-10-13T15:13:52;19.30;99.90
13598;DHT22;38563;54.258;12.574;2023-10-13T15:16:19;19.30;99.90
13598;DHT22;38563;54.258;12.574;2023-10-13T15:18:48;19.30;99.90
13598;DHT22;38563;54.258;12.574;2023-10-13T15:21:19;19.30;99.90
13598;DHT22;38563;54.258;12.574;2023-10-13T15:23:47;19.30;99.90
13598;DHT22;38563;54.258;12.574;2023-10-13T15:26:13;19.30;99.90
13598;DHT22;38563;54.258;12.574;2023-10-13T15:28:42;19.30;99.90
13598;DHT22;38563;54.258;12.574;2023-10-13T15:31:14;19.30;99.90
13598;DHT22;38563;54.258;12.574;2023-10-13T15:34:03;19.20;99.90
13598;DHT22;38563;54.258;12.574;2023-10-13T15:36:32;19.20;99.90
13598;DHT22;38563;54.258;12.574;2023-10-13T15:38:59;19.10;99.90
13598;DHT22;38563;54.258;12.574;2023-10-13T15:41:28;19.10;99.90
13598;DHT22;38563;54.258;12.574;2023-10-13T15:43:56;19.10;99.90
13598;DHT22;38563;54.258;12.574;2023-10-13T15:46:23;19.00;99.90
13598;DHT22;38563;54.258;12.574;2023-10-13T15:48:51;19.00;99.90
13598;DHT22;38563;54.258;12.574;2023-10-13T15:51:19;18.90;99.90
13598;DHT22;38563;54.258;12.574;2023-10-13T15:53:46;18.90;99.90
13598;DHT22;38563;54.258;12.574;2023-10-13T15:56:14;18.90;99.90
13598;DHT22;38563;54.258;12.574;2023-10-13T15:58:42;19.00;99.90
13598;DHT22;38563;54.258;12.574;2023-10-13T16:01:12;19.00;99.90
13598;DHT22;38563;54.258;12.574;2023-10-13T16:03:39;18.90;99.90